<?xml version="1.0" encoding="UTF-8" standalone="no" ?>
<gpx xmlns="http://www.topografix.com/GPX/1/1" xmlns:xsi="http://www.w3.org/2001/XMLSchema-instance" xsi:schemaLocation="http://www.topografix.com/GPX/1/1 http://www.topografix.com/GPX/1/1/gpx.xsd" version="1.1" creator="VisuGPX - https://www.visugpx.com">
  <metadata>
    <name>La Jas _Col de la Bohémienne_Le Devès_Aulan</name>
  </metadata>
  <trk>
    <name><![CDATA[La Jas _Col de la Bohémienne_Le Devès_Aulan_2]]></name>
    <trkseg>
      <trkpt lat="44.22608" lon="5.41086">
        <ele>824.73</ele>
        <time>2020-03-15T13:16:37Z</time>
      </trkpt>
      <trkpt lat="44.2262" lon="5.41054">
        <ele>823.9</ele>
        <time>2020-03-15T13:17:01Z</time>
      </trkpt>
      <trkpt lat="44.22626" lon="5.41049">
        <ele>824.07</ele>
        <time>2020-03-15T13:17:05Z</time>
      </trkpt>
      <trkpt lat="44.22639" lon="5.41017">
        <ele>825.13</ele>
        <time>2020-03-15T13:17:39Z</time>
      </trkpt>
      <trkpt lat="44.22647" lon="5.40996">
        <ele>826.58</ele>
        <time>2020-03-15T13:17:57Z</time>
      </trkpt>
      <trkpt lat="44.2265" lon="5.40982">
        <ele>826.44</ele>
        <time>2020-03-15T13:18:06Z</time>
      </trkpt>
      <trkpt lat="44.22649" lon="5.40945">
        <ele>829.42</ele>
        <time>2020-03-15T13:18:34Z</time>
      </trkpt>
      <trkpt lat="44.22654" lon="5.40926">
        <ele>832.47</ele>
        <time>2020-03-15T13:18:53Z</time>
      </trkpt>
      <trkpt lat="44.22687" lon="5.40886">
        <ele>834.85</ele>
        <time>2020-03-15T13:19:19Z</time>
      </trkpt>
      <trkpt lat="44.22706" lon="5.40862">
        <ele>837.33</ele>
        <time>2020-03-15T13:19:47Z</time>
      </trkpt>
      <trkpt lat="44.22707" lon="5.40861">
        <ele>837.28</ele>
        <time>2020-03-15T13:19:48Z</time>
      </trkpt>
      <trkpt lat="44.22724" lon="5.40839">
        <ele>837.91</ele>
        <time>2020-03-15T13:20:10Z</time>
      </trkpt>
      <trkpt lat="44.22733" lon="5.40825">
        <ele>838.96</ele>
        <time>2020-03-15T13:20:33Z</time>
      </trkpt>
      <trkpt lat="44.22734" lon="5.40822">
        <ele>838.44</ele>
        <time>2020-03-15T13:20:47Z</time>
      </trkpt>
      <trkpt lat="44.22736" lon="5.4082">
        <ele>838.26</ele>
        <time>2020-03-15T13:20:49Z</time>
      </trkpt>
      <trkpt lat="44.22747" lon="5.40792">
        <ele>839.13</ele>
        <time>2020-03-15T13:21:16Z</time>
      </trkpt>
      <trkpt lat="44.22747" lon="5.40792">
        <ele>838.99</ele>
        <time>2020-03-15T13:21:17Z</time>
      </trkpt>
      <trkpt lat="44.2276" lon="5.4077">
        <ele>840.41</ele>
        <time>2020-03-15T13:21:38Z</time>
      </trkpt>
      <trkpt lat="44.22778" lon="5.40737">
        <ele>842.13</ele>
        <time>2020-03-15T13:22:03Z</time>
      </trkpt>
      <trkpt lat="44.22783" lon="5.40699">
        <ele>841.41</ele>
        <time>2020-03-15T13:22:27Z</time>
      </trkpt>
      <trkpt lat="44.22786" lon="5.40679">
        <ele>842.31</ele>
        <time>2020-03-15T13:22:39Z</time>
      </trkpt>
      <trkpt lat="44.22788" lon="5.4067">
        <ele>842.53</ele>
        <time>2020-03-15T13:22:45Z</time>
      </trkpt>
      <trkpt lat="44.22791" lon="5.40657">
        <ele>842.12</ele>
        <time>2020-03-15T13:23:14Z</time>
      </trkpt>
      <trkpt lat="44.22792" lon="5.40653">
        <ele>842.95</ele>
        <time>2020-03-15T13:23:24Z</time>
      </trkpt>
      <trkpt lat="44.22795" lon="5.40652">
        <ele>842.89</ele>
        <time>2020-03-15T13:23:28Z</time>
      </trkpt>
      <trkpt lat="44.22804" lon="5.40642">
        <ele>843.58</ele>
        <time>2020-03-15T13:23:40Z</time>
      </trkpt>
      <trkpt lat="44.22809" lon="5.40634">
        <ele>844.83</ele>
        <time>2020-03-15T13:23:47Z</time>
      </trkpt>
      <trkpt lat="44.22824" lon="5.40619">
        <ele>848.18</ele>
        <time>2020-03-15T13:24:02Z</time>
      </trkpt>
      <trkpt lat="44.2284" lon="5.4061">
        <ele>851.36</ele>
        <time>2020-03-15T13:24:17Z</time>
      </trkpt>
      <trkpt lat="44.22863" lon="5.40602">
        <ele>852.84</ele>
        <time>2020-03-15T13:24:35Z</time>
      </trkpt>
      <trkpt lat="44.22877" lon="5.40583">
        <ele>853.27</ele>
        <time>2020-03-15T13:24:51Z</time>
      </trkpt>
      <trkpt lat="44.22883" lon="5.40572">
        <ele>854.12</ele>
        <time>2020-03-15T13:25:08Z</time>
      </trkpt>
      <trkpt lat="44.22886" lon="5.40567">
        <ele>853.7</ele>
        <time>2020-03-15T13:25:31Z</time>
      </trkpt>
      <trkpt lat="44.22907" lon="5.40531">
        <ele>855.87</ele>
        <time>2020-03-15T13:26:00Z</time>
      </trkpt>
      <trkpt lat="44.22946" lon="5.40503">
        <ele>854.83</ele>
        <time>2020-03-15T13:26:34Z</time>
      </trkpt>
      <trkpt lat="44.22976" lon="5.40467">
        <ele>852.95</ele>
        <time>2020-03-15T13:27:05Z</time>
      </trkpt>
      <trkpt lat="44.2299" lon="5.40435">
        <ele>851.09</ele>
        <time>2020-03-15T13:27:26Z</time>
      </trkpt>
      <trkpt lat="44.23006" lon="5.40404">
        <ele>852.63</ele>
        <time>2020-03-15T13:27:47Z</time>
      </trkpt>
      <trkpt lat="44.23017" lon="5.40351">
        <ele>853.75</ele>
        <time>2020-03-15T13:28:17Z</time>
      </trkpt>
      <trkpt lat="44.23018" lon="5.40343">
        <ele>854.3</ele>
        <time>2020-03-15T13:28:22Z</time>
      </trkpt>
      <trkpt lat="44.2302" lon="5.4034">
        <ele>854.04</ele>
        <time>2020-03-15T13:28:25Z</time>
      </trkpt>
      <trkpt lat="44.23048" lon="5.40325">
        <ele>856.8</ele>
        <time>2020-03-15T13:28:48Z</time>
      </trkpt>
      <trkpt lat="44.23078" lon="5.40311">
        <ele>855.53</ele>
        <time>2020-03-15T13:29:12Z</time>
      </trkpt>
      <trkpt lat="44.23107" lon="5.40301">
        <ele>854.55</ele>
        <time>2020-03-15T13:29:35Z</time>
      </trkpt>
      <trkpt lat="44.2313" lon="5.40287">
        <ele>854.53</ele>
        <time>2020-03-15T13:29:56Z</time>
      </trkpt>
      <trkpt lat="44.23138" lon="5.40271">
        <ele>854.83</ele>
        <time>2020-03-15T13:30:09Z</time>
      </trkpt>
      <trkpt lat="44.23146" lon="5.40256">
        <ele>854.75</ele>
        <time>2020-03-15T13:30:19Z</time>
      </trkpt>
      <trkpt lat="44.23161" lon="5.4024">
        <ele>854.18</ele>
        <time>2020-03-15T13:30:35Z</time>
      </trkpt>
      <trkpt lat="44.23165" lon="5.40237">
        <ele>854.63</ele>
        <time>2020-03-15T13:30:38Z</time>
      </trkpt>
      <trkpt lat="44.2318" lon="5.40208">
        <ele>854.74</ele>
        <time>2020-03-15T13:30:58Z</time>
      </trkpt>
      <trkpt lat="44.23194" lon="5.40182">
        <ele>855.17</ele>
        <time>2020-03-15T13:31:20Z</time>
      </trkpt>
      <trkpt lat="44.23212" lon="5.40159">
        <ele>856.75</ele>
        <time>2020-03-15T13:31:40Z</time>
      </trkpt>
      <trkpt lat="44.23213" lon="5.40153">
        <ele>856.85</ele>
        <time>2020-03-15T13:31:43Z</time>
      </trkpt>
      <trkpt lat="44.23215" lon="5.40146">
        <ele>857</ele>
        <time>2020-03-15T13:31:45Z</time>
      </trkpt>
      <trkpt lat="44.23218" lon="5.4014">
        <ele>857.7</ele>
        <time>2020-03-15T13:31:50Z</time>
      </trkpt>
      <trkpt lat="44.2322" lon="5.4013">
        <ele>858.01</ele>
        <time>2020-03-15T13:31:57Z</time>
      </trkpt>
      <trkpt lat="44.23238" lon="5.40094">
        <ele>858.32</ele>
        <time>2020-03-15T13:32:20Z</time>
      </trkpt>
      <trkpt lat="44.23252" lon="5.40058">
        <ele>860.42</ele>
        <time>2020-03-15T13:32:40Z</time>
      </trkpt>
      <trkpt lat="44.23253" lon="5.40047">
        <ele>860.14</ele>
        <time>2020-03-15T13:32:47Z</time>
      </trkpt>
      <trkpt lat="44.23257" lon="5.40036">
        <ele>860.7</ele>
        <time>2020-03-15T13:32:54Z</time>
      </trkpt>
      <trkpt lat="44.23264" lon="5.40031">
        <ele>861.04</ele>
        <time>2020-03-15T13:33:03Z</time>
      </trkpt>
      <trkpt lat="44.23277" lon="5.40017">
        <ele>861.62</ele>
        <time>2020-03-15T13:33:23Z</time>
      </trkpt>
      <trkpt lat="44.23294" lon="5.39991">
        <ele>863.78</ele>
        <time>2020-03-15T13:33:44Z</time>
      </trkpt>
      <trkpt lat="44.23295" lon="5.3999">
        <ele>863.88</ele>
        <time>2020-03-15T13:33:45Z</time>
      </trkpt>
      <trkpt lat="44.23301" lon="5.39977">
        <ele>863.65</ele>
        <time>2020-03-15T13:33:54Z</time>
      </trkpt>
      <trkpt lat="44.23309" lon="5.39968">
        <ele>865.17</ele>
        <time>2020-03-15T13:34:02Z</time>
      </trkpt>
      <trkpt lat="44.23311" lon="5.39967">
        <ele>865.42</ele>
        <time>2020-03-15T13:34:04Z</time>
      </trkpt>
      <trkpt lat="44.23319" lon="5.39958">
        <ele>866.04</ele>
        <time>2020-03-15T13:34:13Z</time>
      </trkpt>
      <trkpt lat="44.2333" lon="5.39946">
        <ele>866.11</ele>
        <time>2020-03-15T13:34:26Z</time>
      </trkpt>
      <trkpt lat="44.23331" lon="5.39944">
        <ele>866.18</ele>
        <time>2020-03-15T13:34:28Z</time>
      </trkpt>
      <trkpt lat="44.2335" lon="5.39908">
        <ele>868.58</ele>
        <time>2020-03-15T13:34:53Z</time>
      </trkpt>
      <trkpt lat="44.23365" lon="5.39882">
        <ele>869.92</ele>
        <time>2020-03-15T13:35:14Z</time>
      </trkpt>
      <trkpt lat="44.23376" lon="5.39867">
        <ele>869.63</ele>
        <time>2020-03-15T13:35:39Z</time>
      </trkpt>
      <trkpt lat="44.23397" lon="5.39844">
        <ele>871.12</ele>
        <time>2020-03-15T13:36:09Z</time>
      </trkpt>
      <trkpt lat="44.23415" lon="5.39814">
        <ele>873.75</ele>
        <time>2020-03-15T13:36:36Z</time>
      </trkpt>
      <trkpt lat="44.2342" lon="5.39813">
        <ele>874.04</ele>
        <time>2020-03-15T13:36:39Z</time>
      </trkpt>
      <trkpt lat="44.2343" lon="5.39808">
        <ele>874.86</ele>
        <time>2020-03-15T13:37:05Z</time>
      </trkpt>
      <trkpt lat="44.23441" lon="5.39805">
        <ele>877.29</ele>
        <time>2020-03-15T13:37:35Z</time>
      </trkpt>
      <trkpt lat="44.23442" lon="5.39804">
        <ele>877.25</ele>
        <time>2020-03-15T13:37:36Z</time>
      </trkpt>
      <trkpt lat="44.23447" lon="5.39803">
        <ele>876.97</ele>
        <time>2020-03-15T13:37:41Z</time>
      </trkpt>
      <trkpt lat="44.23469" lon="5.39786">
        <ele>879.2</ele>
        <time>2020-03-15T13:38:04Z</time>
      </trkpt>
      <trkpt lat="44.23475" lon="5.39773">
        <ele>882.44</ele>
        <time>2020-03-15T13:38:17Z</time>
      </trkpt>
      <trkpt lat="44.23477" lon="5.3977">
        <ele>883.02</ele>
        <time>2020-03-15T13:38:20Z</time>
      </trkpt>
      <trkpt lat="44.23482" lon="5.39756">
        <ele>884.01</ele>
        <time>2020-03-15T13:38:32Z</time>
      </trkpt>
      <trkpt lat="44.2349" lon="5.39728">
        <ele>887.56</ele>
        <time>2020-03-15T13:38:56Z</time>
      </trkpt>
      <trkpt lat="44.23491" lon="5.39721">
        <ele>887.76</ele>
        <time>2020-03-15T13:39:02Z</time>
      </trkpt>
      <trkpt lat="44.23498" lon="5.39692">
        <ele>888.56</ele>
        <time>2020-03-15T13:39:21Z</time>
      </trkpt>
      <trkpt lat="44.23501" lon="5.39679">
        <ele>888.6</ele>
        <time>2020-03-15T13:39:29Z</time>
      </trkpt>
      <trkpt lat="44.23504" lon="5.39667">
        <ele>889.28</ele>
        <time>2020-03-15T13:39:39Z</time>
      </trkpt>
      <trkpt lat="44.23513" lon="5.39659">
        <ele>889.75</ele>
        <time>2020-03-15T13:39:49Z</time>
      </trkpt>
      <trkpt lat="44.23519" lon="5.39654">
        <ele>890.43</ele>
        <time>2020-03-15T13:39:56Z</time>
      </trkpt>
      <trkpt lat="44.23524" lon="5.3965">
        <ele>891.66</ele>
        <time>2020-03-15T13:40:00Z</time>
      </trkpt>
      <trkpt lat="44.23538" lon="5.3964">
        <ele>894.91</ele>
        <time>2020-03-15T13:40:18Z</time>
      </trkpt>
      <trkpt lat="44.23543" lon="5.39628">
        <ele>896.26</ele>
        <time>2020-03-15T13:40:27Z</time>
      </trkpt>
      <trkpt lat="44.23553" lon="5.39603">
        <ele>898.81</ele>
        <time>2020-03-15T13:40:49Z</time>
      </trkpt>
      <trkpt lat="44.23555" lon="5.39586">
        <ele>900.5</ele>
        <time>2020-03-15T13:41:04Z</time>
      </trkpt>
      <trkpt lat="44.2355" lon="5.39559">
        <ele>903.66</ele>
        <time>2020-03-15T13:41:24Z</time>
      </trkpt>
      <trkpt lat="44.23555" lon="5.39525">
        <ele>904.18</ele>
        <time>2020-03-15T13:41:44Z</time>
      </trkpt>
      <trkpt lat="44.23555" lon="5.39523">
        <ele>904.29</ele>
        <time>2020-03-15T13:41:45Z</time>
      </trkpt>
      <trkpt lat="44.23559" lon="5.39508">
        <ele>903.92</ele>
        <time>2020-03-15T13:41:54Z</time>
      </trkpt>
      <trkpt lat="44.23567" lon="5.39491">
        <ele>906.31</ele>
        <time>2020-03-15T13:42:13Z</time>
      </trkpt>
      <trkpt lat="44.23571" lon="5.39492">
        <ele>906.08</ele>
        <time>2020-03-15T13:42:38Z</time>
      </trkpt>
      <trkpt lat="44.23583" lon="5.39489">
        <ele>905.94</ele>
        <time>2020-03-15T13:43:07Z</time>
      </trkpt>
      <trkpt lat="44.23598" lon="5.3948">
        <ele>908.69</ele>
        <time>2020-03-15T13:43:24Z</time>
      </trkpt>
      <trkpt lat="44.23605" lon="5.39473">
        <ele>910.98</ele>
        <time>2020-03-15T13:43:33Z</time>
      </trkpt>
      <trkpt lat="44.2362" lon="5.39456">
        <ele>913.48</ele>
        <time>2020-03-15T13:43:51Z</time>
      </trkpt>
      <trkpt lat="44.23634" lon="5.39448">
        <ele>912.98</ele>
        <time>2020-03-15T13:44:04Z</time>
      </trkpt>
      <trkpt lat="44.23635" lon="5.39445">
        <ele>913.47</ele>
        <time>2020-03-15T13:44:07Z</time>
      </trkpt>
      <trkpt lat="44.23642" lon="5.39436">
        <ele>913.09</ele>
        <time>2020-03-15T13:44:21Z</time>
      </trkpt>
      <trkpt lat="44.23649" lon="5.39429">
        <ele>913.27</ele>
        <time>2020-03-15T13:44:31Z</time>
      </trkpt>
      <trkpt lat="44.23657" lon="5.3942">
        <ele>914.73</ele>
        <time>2020-03-15T13:44:41Z</time>
      </trkpt>
      <trkpt lat="44.23661" lon="5.39417">
        <ele>915.62</ele>
        <time>2020-03-15T13:44:46Z</time>
      </trkpt>
      <trkpt lat="44.23669" lon="5.39412">
        <ele>917.18</ele>
        <time>2020-03-15T13:44:54Z</time>
      </trkpt>
      <trkpt lat="44.23671" lon="5.39411">
        <ele>916.51</ele>
        <time>2020-03-15T13:44:56Z</time>
      </trkpt>
      <trkpt lat="44.23679" lon="5.39409">
        <ele>918.28</ele>
        <time>2020-03-15T13:45:05Z</time>
      </trkpt>
      <trkpt lat="44.23685" lon="5.39406">
        <ele>918.17</ele>
        <time>2020-03-15T13:45:10Z</time>
      </trkpt>
      <trkpt lat="44.23699" lon="5.39393">
        <ele>921.38</ele>
        <time>2020-03-15T13:45:25Z</time>
      </trkpt>
      <trkpt lat="44.23714" lon="5.39382">
        <ele>924.81</ele>
        <time>2020-03-15T13:45:41Z</time>
      </trkpt>
      <trkpt lat="44.23714" lon="5.39381">
        <ele>925.04</ele>
        <time>2020-03-15T13:45:42Z</time>
      </trkpt>
      <trkpt lat="44.23728" lon="5.39363">
        <ele>928.21</ele>
        <time>2020-03-15T13:46:00Z</time>
      </trkpt>
      <trkpt lat="44.23752" lon="5.39328">
        <ele>931.16</ele>
        <time>2020-03-15T13:46:31Z</time>
      </trkpt>
      <trkpt lat="44.23752" lon="5.39323">
        <ele>931.44</ele>
        <time>2020-03-15T13:46:56Z</time>
      </trkpt>
      <trkpt lat="44.23752" lon="5.39325">
        <ele>930.61</ele>
        <time>2020-03-15T13:47:18Z</time>
      </trkpt>
      <trkpt lat="44.23752" lon="5.39325">
        <ele>931.03</ele>
        <time>2020-03-15T13:48:23Z</time>
      </trkpt>
      <trkpt lat="44.23753" lon="5.39328">
        <ele>932.47</ele>
        <time>2020-03-15T13:49:30Z</time>
      </trkpt>
      <trkpt lat="44.23753" lon="5.39327">
        <ele>935.35</ele>
        <time>2020-03-15T13:51:00Z</time>
      </trkpt>
      <trkpt lat="44.23753" lon="5.39327">
        <ele>932.25</ele>
        <time>2020-03-15T13:51:03Z</time>
      </trkpt>
      <trkpt lat="44.23746" lon="5.39322">
        <ele>935.48</ele>
        <time>2020-03-15T13:51:14Z</time>
      </trkpt>
      <trkpt lat="44.23737" lon="5.39309">
        <ele>938.37</ele>
        <time>2020-03-15T13:51:30Z</time>
      </trkpt>
      <trkpt lat="44.23728" lon="5.39299">
        <ele>940.01</ele>
        <time>2020-03-15T13:51:41Z</time>
      </trkpt>
      <trkpt lat="44.23727" lon="5.39296">
        <ele>940.15</ele>
        <time>2020-03-15T13:51:43Z</time>
      </trkpt>
      <trkpt lat="44.23725" lon="5.39294">
        <ele>940.36</ele>
        <time>2020-03-15T13:51:45Z</time>
      </trkpt>
      <trkpt lat="44.23713" lon="5.39291">
        <ele>939.96</ele>
        <time>2020-03-15T13:51:59Z</time>
      </trkpt>
      <trkpt lat="44.23709" lon="5.39292">
        <ele>939.98</ele>
        <time>2020-03-15T13:52:02Z</time>
      </trkpt>
      <trkpt lat="44.23697" lon="5.39291">
        <ele>939.24</ele>
        <time>2020-03-15T13:52:12Z</time>
      </trkpt>
      <trkpt lat="44.23693" lon="5.39284">
        <ele>939.81</ele>
        <time>2020-03-15T13:52:18Z</time>
      </trkpt>
      <trkpt lat="44.23691" lon="5.39285">
        <ele>939.75</ele>
        <time>2020-03-15T13:52:20Z</time>
      </trkpt>
      <trkpt lat="44.23673" lon="5.39284">
        <ele>941.21</ele>
        <time>2020-03-15T13:52:41Z</time>
      </trkpt>
      <trkpt lat="44.23646" lon="5.39275">
        <ele>942.85</ele>
        <time>2020-03-15T13:53:09Z</time>
      </trkpt>
      <trkpt lat="44.23616" lon="5.39275">
        <ele>941.91</ele>
        <time>2020-03-15T13:53:31Z</time>
      </trkpt>
      <trkpt lat="44.23597" lon="5.39284">
        <ele>943.47</ele>
        <time>2020-03-15T13:53:53Z</time>
      </trkpt>
      <trkpt lat="44.23583" lon="5.39292">
        <ele>946.52</ele>
        <time>2020-03-15T13:54:10Z</time>
      </trkpt>
      <trkpt lat="44.23563" lon="5.39297">
        <ele>945.93</ele>
        <time>2020-03-15T13:54:33Z</time>
      </trkpt>
      <trkpt lat="44.23542" lon="5.39299">
        <ele>948.44</ele>
        <time>2020-03-15T13:54:56Z</time>
      </trkpt>
      <trkpt lat="44.23532" lon="5.39291">
        <ele>951.52</ele>
        <time>2020-03-15T13:55:11Z</time>
      </trkpt>
      <trkpt lat="44.23525" lon="5.39291">
        <ele>954.56</ele>
        <time>2020-03-15T13:55:28Z</time>
      </trkpt>
      <trkpt lat="44.2352" lon="5.3928">
        <ele>957.74</ele>
        <time>2020-03-15T13:55:49Z</time>
      </trkpt>
      <trkpt lat="44.23518" lon="5.39269">
        <ele>959.8</ele>
        <time>2020-03-15T13:56:03Z</time>
      </trkpt>
      <trkpt lat="44.23517" lon="5.39256">
        <ele>963.01</ele>
        <time>2020-03-15T13:56:21Z</time>
      </trkpt>
      <trkpt lat="44.23517" lon="5.39239">
        <ele>966.14</ele>
        <time>2020-03-15T13:56:41Z</time>
      </trkpt>
      <trkpt lat="44.23514" lon="5.39227">
        <ele>969.28</ele>
        <time>2020-03-15T13:56:57Z</time>
      </trkpt>
      <trkpt lat="44.23511" lon="5.39206">
        <ele>972.3</ele>
        <time>2020-03-15T13:57:14Z</time>
      </trkpt>
      <trkpt lat="44.23511" lon="5.39175">
        <ele>975.44</ele>
        <time>2020-03-15T13:57:32Z</time>
      </trkpt>
      <trkpt lat="44.23509" lon="5.3916">
        <ele>976.48</ele>
        <time>2020-03-15T13:58:05Z</time>
      </trkpt>
      <trkpt lat="44.23509" lon="5.39149">
        <ele>976.12</ele>
        <time>2020-03-15T13:58:12Z</time>
      </trkpt>
      <trkpt lat="44.23507" lon="5.39125">
        <ele>979.12</ele>
        <time>2020-03-15T13:58:32Z</time>
      </trkpt>
      <trkpt lat="44.23508" lon="5.39111">
        <ele>980.23</ele>
        <time>2020-03-15T13:58:41Z</time>
      </trkpt>
      <trkpt lat="44.23511" lon="5.39083">
        <ele>983.3</ele>
        <time>2020-03-15T13:59:00Z</time>
      </trkpt>
      <trkpt lat="44.23511" lon="5.39078">
        <ele>983.73</ele>
        <time>2020-03-15T13:59:04Z</time>
      </trkpt>
      <trkpt lat="44.23512" lon="5.39053">
        <ele>987.07</ele>
        <time>2020-03-15T13:59:23Z</time>
      </trkpt>
      <trkpt lat="44.23512" lon="5.39046">
        <ele>988.1</ele>
        <time>2020-03-15T13:59:29Z</time>
      </trkpt>
      <trkpt lat="44.2351" lon="5.39032">
        <ele>990.1</ele>
        <time>2020-03-15T13:59:39Z</time>
      </trkpt>
      <trkpt lat="44.2351" lon="5.3901">
        <ele>992.77</ele>
        <time>2020-03-15T13:59:54Z</time>
      </trkpt>
      <trkpt lat="44.23514" lon="5.38978">
        <ele>996.17</ele>
        <time>2020-03-15T14:00:15Z</time>
      </trkpt>
      <trkpt lat="44.23517" lon="5.38974">
        <ele>997.06</ele>
        <time>2020-03-15T14:00:20Z</time>
      </trkpt>
      <trkpt lat="44.23519" lon="5.38973">
        <ele>997.26</ele>
        <time>2020-03-15T14:00:22Z</time>
      </trkpt>
      <trkpt lat="44.23524" lon="5.3897">
        <ele>997.93</ele>
        <time>2020-03-15T14:00:27Z</time>
      </trkpt>
      <trkpt lat="44.23537" lon="5.38956">
        <ele>1001.13</ele>
        <time>2020-03-15T14:00:44Z</time>
      </trkpt>
      <trkpt lat="44.23547" lon="5.38933">
        <ele>1004.18</ele>
        <time>2020-03-15T14:01:04Z</time>
      </trkpt>
      <trkpt lat="44.23554" lon="5.38909">
        <ele>1007.44</ele>
        <time>2020-03-15T14:01:21Z</time>
      </trkpt>
      <trkpt lat="44.23568" lon="5.38874">
        <ele>1009.33</ele>
        <time>2020-03-15T14:01:48Z</time>
      </trkpt>
      <trkpt lat="44.23576" lon="5.38861">
        <ele>1010.37</ele>
        <time>2020-03-15T14:02:12Z</time>
      </trkpt>
      <trkpt lat="44.23576" lon="5.38861">
        <ele>1010.17</ele>
        <time>2020-03-15T14:02:45Z</time>
      </trkpt>
      <trkpt lat="44.2358" lon="5.38853">
        <ele>1011.58</ele>
        <time>2020-03-15T14:03:31Z</time>
      </trkpt>
      <trkpt lat="44.23583" lon="5.38838">
        <ele>1014.76</ele>
        <time>2020-03-15T14:03:44Z</time>
      </trkpt>
      <trkpt lat="44.23584" lon="5.38836">
        <ele>1015.43</ele>
        <time>2020-03-15T14:03:47Z</time>
      </trkpt>
      <trkpt lat="44.23589" lon="5.38833">
        <ele>1015.8</ele>
        <time>2020-03-15T14:03:51Z</time>
      </trkpt>
      <trkpt lat="44.23605" lon="5.38804">
        <ele>1018.13</ele>
        <time>2020-03-15T14:04:18Z</time>
      </trkpt>
      <trkpt lat="44.23613" lon="5.38781">
        <ele>1021.2</ele>
        <time>2020-03-15T14:04:40Z</time>
      </trkpt>
      <trkpt lat="44.23616" lon="5.38762">
        <ele>1023.5</ele>
        <time>2020-03-15T14:04:54Z</time>
      </trkpt>
      <trkpt lat="44.23617" lon="5.38758">
        <ele>1023.93</ele>
        <time>2020-03-15T14:04:56Z</time>
      </trkpt>
      <trkpt lat="44.23622" lon="5.38734">
        <ele>1024.94</ele>
        <time>2020-03-15T14:05:15Z</time>
      </trkpt>
      <trkpt lat="44.2362" lon="5.38711">
        <ele>1027.98</ele>
        <time>2020-03-15T14:05:37Z</time>
      </trkpt>
      <trkpt lat="44.2362" lon="5.38705">
        <ele>1027.91</ele>
        <time>2020-03-15T14:05:41Z</time>
      </trkpt>
      <trkpt lat="44.23622" lon="5.38691">
        <ele>1028.06</ele>
        <time>2020-03-15T14:05:52Z</time>
      </trkpt>
      <trkpt lat="44.23618" lon="5.38657">
        <ele>1030.33</ele>
        <time>2020-03-15T14:06:16Z</time>
      </trkpt>
      <trkpt lat="44.23616" lon="5.38644">
        <ele>1031.22</ele>
        <time>2020-03-15T14:06:24Z</time>
      </trkpt>
      <trkpt lat="44.23609" lon="5.38621">
        <ele>1033.71</ele>
        <time>2020-03-15T14:06:42Z</time>
      </trkpt>
      <trkpt lat="44.23599" lon="5.38578">
        <ele>1036.99</ele>
        <time>2020-03-15T14:07:06Z</time>
      </trkpt>
      <trkpt lat="44.23591" lon="5.38565">
        <ele>1037.33</ele>
        <time>2020-03-15T14:07:30Z</time>
      </trkpt>
      <trkpt lat="44.23586" lon="5.3855">
        <ele>1038.29</ele>
        <time>2020-03-15T14:08:13Z</time>
      </trkpt>
      <trkpt lat="44.23575" lon="5.38511">
        <ele>1040.22</ele>
        <time>2020-03-15T14:08:40Z</time>
      </trkpt>
      <trkpt lat="44.23565" lon="5.38462">
        <ele>1041.97</ele>
        <time>2020-03-15T14:09:10Z</time>
      </trkpt>
      <trkpt lat="44.23558" lon="5.38408">
        <ele>1043.95</ele>
        <time>2020-03-15T14:09:42Z</time>
      </trkpt>
      <trkpt lat="44.23557" lon="5.38362">
        <ele>1045.99</ele>
        <time>2020-03-15T14:10:13Z</time>
      </trkpt>
      <trkpt lat="44.23558" lon="5.3836">
        <ele>1045.84</ele>
        <time>2020-03-15T14:10:26Z</time>
      </trkpt>
      <trkpt lat="44.2356" lon="5.38353">
        <ele>1046.44</ele>
        <time>2020-03-15T14:10:31Z</time>
      </trkpt>
      <trkpt lat="44.23561" lon="5.38351">
        <ele>1046.5</ele>
        <time>2020-03-15T14:10:33Z</time>
      </trkpt>
      <trkpt lat="44.23564" lon="5.38339">
        <ele>1046.62</ele>
        <time>2020-03-15T14:10:40Z</time>
      </trkpt>
      <trkpt lat="44.23566" lon="5.38332">
        <ele>1046.9</ele>
        <time>2020-03-15T14:10:44Z</time>
      </trkpt>
      <trkpt lat="44.23582" lon="5.38297">
        <ele>1047.18</ele>
        <time>2020-03-15T14:11:06Z</time>
      </trkpt>
      <trkpt lat="44.23594" lon="5.38266">
        <ele>1048.27</ele>
        <time>2020-03-15T14:11:26Z</time>
      </trkpt>
      <trkpt lat="44.23605" lon="5.38236">
        <ele>1048.7</ele>
        <time>2020-03-15T14:11:45Z</time>
      </trkpt>
      <trkpt lat="44.23616" lon="5.38201">
        <ele>1049.25</ele>
        <time>2020-03-15T14:12:06Z</time>
      </trkpt>
      <trkpt lat="44.23629" lon="5.38165">
        <ele>1049.51</ele>
        <time>2020-03-15T14:12:28Z</time>
      </trkpt>
      <trkpt lat="44.2363" lon="5.3816">
        <ele>1049.67</ele>
        <time>2020-03-15T14:12:31Z</time>
      </trkpt>
      <trkpt lat="44.23632" lon="5.38153">
        <ele>1050.24</ele>
        <time>2020-03-15T14:12:36Z</time>
      </trkpt>
      <trkpt lat="44.23635" lon="5.38144">
        <ele>1050.12</ele>
        <time>2020-03-15T14:12:42Z</time>
      </trkpt>
      <trkpt lat="44.23649" lon="5.38114">
        <ele>1050.43</ele>
        <time>2020-03-15T14:13:02Z</time>
      </trkpt>
      <trkpt lat="44.23656" lon="5.38105">
        <ele>1051.05</ele>
        <time>2020-03-15T14:13:09Z</time>
      </trkpt>
      <trkpt lat="44.23668" lon="5.38067">
        <ele>1054.97</ele>
        <time>2020-03-15T14:15:29Z</time>
      </trkpt>
      <trkpt lat="44.23668" lon="5.38067">
        <ele>1056.18</ele>
        <time>2020-03-15T14:16:24Z</time>
      </trkpt>
      <trkpt lat="44.23669" lon="5.38068">
        <ele>1054.93</ele>
        <time>2020-03-15T14:17:07Z</time>
      </trkpt>
      <trkpt lat="44.23672" lon="5.38043">
        <ele>1054.61</ele>
        <time>2020-03-15T14:19:06Z</time>
      </trkpt>
      <trkpt lat="44.23673" lon="5.3804">
        <ele>1054</ele>
        <time>2020-03-15T14:19:09Z</time>
      </trkpt>
      <trkpt lat="44.23674" lon="5.38028">
        <ele>1053.72</ele>
        <time>2020-03-15T14:19:16Z</time>
      </trkpt>
      <trkpt lat="44.23676" lon="5.37991">
        <ele>1054.4</ele>
        <time>2020-03-15T14:19:37Z</time>
      </trkpt>
      <trkpt lat="44.23674" lon="5.37985">
        <ele>1055.27</ele>
        <time>2020-03-15T14:19:41Z</time>
      </trkpt>
      <trkpt lat="44.23654" lon="5.37959">
        <ele>1053.61</ele>
        <time>2020-03-15T14:20:05Z</time>
      </trkpt>
      <trkpt lat="44.23636" lon="5.37935">
        <ele>1055.67</ele>
        <time>2020-03-15T14:20:29Z</time>
      </trkpt>
      <trkpt lat="44.23635" lon="5.37934">
        <ele>1055.77</ele>
        <time>2020-03-15T14:20:30Z</time>
      </trkpt>
      <trkpt lat="44.23622" lon="5.37925">
        <ele>1058.22</ele>
        <time>2020-03-15T14:20:44Z</time>
      </trkpt>
      <trkpt lat="44.23606" lon="5.37897">
        <ele>1060.84</ele>
        <time>2020-03-15T14:21:07Z</time>
      </trkpt>
      <trkpt lat="44.23594" lon="5.37869">
        <ele>1063.9</ele>
        <time>2020-03-15T14:21:24Z</time>
      </trkpt>
      <trkpt lat="44.23587" lon="5.37836">
        <ele>1067.17</ele>
        <time>2020-03-15T14:21:46Z</time>
      </trkpt>
      <trkpt lat="44.23576" lon="5.37806">
        <ele>1069.95</ele>
        <time>2020-03-15T14:22:07Z</time>
      </trkpt>
      <trkpt lat="44.23565" lon="5.37788">
        <ele>1073.11</ele>
        <time>2020-03-15T14:22:24Z</time>
      </trkpt>
      <trkpt lat="44.23553" lon="5.37773">
        <ele>1075.85</ele>
        <time>2020-03-15T14:22:42Z</time>
      </trkpt>
      <trkpt lat="44.23541" lon="5.37748">
        <ele>1078.95</ele>
        <time>2020-03-15T14:23:02Z</time>
      </trkpt>
      <trkpt lat="44.23535" lon="5.3773">
        <ele>1082.1</ele>
        <time>2020-03-15T14:23:17Z</time>
      </trkpt>
      <trkpt lat="44.23516" lon="5.37714">
        <ele>1085.29</ele>
        <time>2020-03-15T14:23:34Z</time>
      </trkpt>
      <trkpt lat="44.2351" lon="5.37717">
        <ele>1086.13</ele>
        <time>2020-03-15T14:23:39Z</time>
      </trkpt>
      <trkpt lat="44.23499" lon="5.37727">
        <ele>1087.54</ele>
        <time>2020-03-15T14:23:53Z</time>
      </trkpt>
      <trkpt lat="44.23493" lon="5.37735">
        <ele>1088.55</ele>
        <time>2020-03-15T14:24:28Z</time>
      </trkpt>
    </trkseg>
  </trk>
</gpx>